Terminal Aerodrome Forecast
Issued by NWS

Home | Current Version | Previous Version | Text Only | Print | Product List | Glossary On
Versions: 1 2 3 4 5 6 7 8 9 10 11 12 13 14 15 16 17
000
FTPA31 PHFO 260539
TAFHJR
TAF
PHJR 260539Z 2606/2706 04005KT P6SM FEW060 BKN100
     FM261200 04004KT P6SM VCSH FEW025 BKN045
     FM262000 15010KT P6SM FEW025 SCT045
     FM262200 18008KT P6SM VCSH SCT025 BKN045
     FM270500 04005KT P6SM VCSH SCT025 BKN045=

USA.gov is the U.S. government's official web portal to all federal, state and local government web resources and services.